sensor_id;sensor_type;location;lat;lon;timestamp;temperature;humidity
38263;DHT22;24054;50.128;19.730;2023-07-22T00:01:49;25.20;75.00
38263;DHT22;24054;50.128;19.730;2023-07-22T00:04:16;25.20;75.00
38263;DHT22;24054;50.128;19.730;2023-07-22T00:06:47;25.20;75.10
38263;DHT22;24054;50.128;19.730;2023-07-22T00:09:14;25.20;75.20
38263;DHT22;24054;50.128;19.730;2023-07-22T00:11:41;25.20;75.30
38263;DHT22;24054;50.128;19.730;2023-07-22T00:14:10;25.20;75.30
38263;DHT22;24054;50.128;19.730;2023-07-22T00:16:39;25.20;75.40
38263;DHT22;24054;50.128;19.730;2023-07-22T00:19:06;25.20;75.40
38263;DHT22;24054;50.128;19.730;2023-07-22T00:21:33;25.20;75.40
38263;DHT22;24054;50.128;19.730;2023-07-22T00:24:02;25.20;75.60
38263;DHT22;24054;50.128;19.730;2023-07-22T00:26:30;25.10;75.60
38263;DHT22;24054;50.128;19.730;2023-07-22T00:28:57;25.20;75.70
38263;DHT22;24054;50.128;19.730;2023-07-22T00:31:26;25.20;75.80
38263;DHT22;24054;50.128;19.730;2023-07-22T00:33:53;25.20;75.90
38263;DHT22;24054;50.128;19.730;2023-07-22T00:36:20;25.20;75.90
38263;DHT22;24054;50.128;19.730;2023-07-22T00:38:47;25.20;75.80
38263;DHT22;24054;50.128;19.730;2023-07-22T00:41:15;25.20;75.60
38263;DHT22;24054;50.128;19.730;2023-07-22T00:43:42;25.20;75.90
38263;DHT22;24054;50.128;19.730;2023-07-22T00:46:13;25.10;75.90
38263;DHT22;24054;50.128;19.730;2023-07-22T00:48:40;25.20;76.10
38263;DHT22;24054;50.128;19.730;2023-07-22T00:51:07;25.20;76.10
38263;DHT22;24054;50.128;19.730;2023-07-22T00:53:36;25.20;76.10
38263;DHT22;24054;50.128;19.730;2023-07-22T00:56:04;25.10;76.10
38263;DHT22;24054;50.128;19.730;2023-07-22T00:58:33;25.20;76.20
38263;DHT22;24054;50.128;19.730;2023-07-22T01:01:02;25.20;76.20
38263;DHT22;24054;50.128;19.730;2023-07-22T01:03:29;25.20;76.30
38263;DHT22;24054;50.128;19.730;2023-07-22T01:05:57;25.10;76.20
38263;DHT22;24054;50.128;19.730;2023-07-22T01:08:26;25.20;76.20
38263;DHT22;24054;50.128;19.730;2023-07-22T01:10:53;25.10;76.10
38263;DHT22;24054;50.128;19.730;2023-07-22T01:13:20;25.10;76.10
38263;DHT22;24054;50.128;19.730;2023-07-22T01:15:54;25.10;76.10
38263;DHT22;24054;50.128;19.730;2023-07-22T01:18:21;25.20;76.30
38263;DHT22;24054;50.128;19.730;2023-07-22T01:20:48;25.20;76.20
38263;DHT22;24054;50.128;19.730;2023-07-22T01:23:16;25.10;76.30
38263;DHT22;24054;50.128;19.730;2023-07-22T01:25:46;25.20;76.30
38263;DHT22;24054;50.128;19.730;2023-07-22T01:28:13;25.10;76.20
38263;DHT22;24054;50.128;19.730;2023-07-22T01:30:43;25.20;76.20
38263;DHT22;24054;50.128;19.730;2023-07-22T01:33:10;25.20;76.30
38263;DHT22;24054;50.128;19.730;2023-07-22T01:35:38;25.10;76.20
38263;DHT22;24054;50.128;19.730;2023-07-22T01:38:05;25.10;76.20
38263;DHT22;24054;50.128;19.730;2023-07-22T01:40:34;25.10;76.20
38263;DHT22;24054;50.128;19.730;2023-07-22T01:43:01;25.10;75.90
38263;DHT22;24054;50.128;19.730;2023-07-22T01:45:28;25.10;76.20
38263;DHT22;24054;50.128;19.730;2023-07-22T01:47:55;25.20;76.40
38263;DHT22;24054;50.128;19.730;2023-07-22T01:50:22;25.10;76.30
38263;DHT22;24054;50.128;19.730;2023-07-22T01:52:49;25.10;76.30
38263;DHT22;24054;50.128;19.730;2023-07-22T01:55:16;25.10;76.30
38263;DHT22;24054;50.128;19.730;2023-07-22T01:57:45;25.10;76.40
38263;DHT22;24054;50.128;19.730;2023-07-22T02:00:17;25.10;76.50
38263;DHT22;24054;50.128;19.730;2023-07-22T02:02:47;25.10;76.60
38263;DHT22;24054;50.128;19.730;2023-07-22T02:05:14;25.10;76.60
38263;DHT22;24054;50.128;19.730;2023-07-22T02:07:41;25.20;76.70
38263;DHT22;24054;50.128;19.730;2023-07-22T02:10:09;25.10;76.60
38263;DHT22;24054;50.128;19.730;2023-07-22T02:12:36;25.20;76.60
38263;DHT22;24054;50.128;19.730;2023-07-22T02:15:05;25.10;76.50
38263;DHT22;24054;50.128;19.730;2023-07-22T02:17:33;25.10;76.60
38263;DHT22;24054;50.128;19.730;2023-07-22T02:20:00;25.10;76.60
38263;DHT22;24054;50.128;19.730;2023-07-22T02:22:27;25.10;76.70
38263;DHT22;24054;50.128;19.730;2023-07-22T02:24:56;25.20;76.70
38263;DHT22;24054;50.128;19.730;2023-07-22T02:27:22;25.10;76.70
38263;DHT22;24054;50.128;19.730;2023-07-22T02:29:51;25.20;76.40
38263;DHT22;24054;50.128;19.730;2023-07-22T02:32:21;25.20;76.70
38263;DHT22;24054;50.128;19.730;2023-07-22T02:34:48;25.20;76.60
38263;DHT22;24054;50.128;19.730;2023-07-22T02:37:15;25.10;76.60
38263;DHT22;24054;50.128;19.730;2023-07-22T02:39:42;25.10;76.60
38263;DHT22;24054;50.128;19.730;2023-07-22T02:42:09;25.10;76.60
38263;DHT22;24054;50.128;19.730;2023-07-22T02:44:36;25.20;76.60
38263;DHT22;24054;50.128;19.730;2023-07-22T02:47:07;25.10;76.70
38263;DHT22;24054;50.128;19.730;2023-07-22T02:49:35;25.10;76.60
38263;DHT22;24054;50.128;19.730;2023-07-22T02:52:04;25.10;76.60
38263;DHT22;24054;50.128;19.730;2023-07-22T02:54:37;25.20;76.90
38263;DHT22;24054;50.128;19.730;2023-07-22T02:57:04;25.10;76.70
38263;DHT22;24054;50.128;19.730;2023-07-22T02:59:32;25.10;76.60
38263;DHT22;24054;50.128;19.730;2023-07-22T03:01:59;25.10;76.60
38263;DHT22;24054;50.128;19.730;2023-07-22T03:04:26;25.10;76.60
38263;DHT22;24054;50.128;19.730;2023-07-22T03:06:56;25.10;76.60
38263;DHT22;24054;50.128;19.730;2023-07-22T03:09:23;25.10;76.60
38263;DHT22;24054;50.128;19.730;2023-07-22T03:11:50;25.10;76.60
38263;DHT22;24054;50.128;19.730;2023-07-22T03:14:17;25.10;76.60
38263;DHT22;24054;50.128;19.730;2023-07-22T03:16:45;25.10;76.60
38263;DHT22;24054;50.128;19.730;2023-07-22T03:19:12;25.10;76.70
38263;DHT22;24054;50.128;19.730;2023-07-22T03:21:39;25.10;76.60
38263;DHT22;24054;50.128;19.730;2023-07-22T03:24:07;25.10;76.60
38263;DHT22;24054;50.128;19.730;2023-07-22T03:26:34;25.10;76.60
38263;DHT22;24054;50.128;19.730;2023-07-22T03:29:01;25.10;76.60
38263;DHT22;24054;50.128;19.730;2023-07-22T03:31:30;25.10;76.80
38263;DHT22;24054;50.128;19.730;2023-07-22T03:33:58;25.10;76.70
38263;DHT22;24054;50.128;19.730;2023-07-22T03:36:26;25.10;76.80
38263;DHT22;24054;50.128;19.730;2023-07-22T03:38:54;25.10;76.80
38263;DHT22;24054;50.128;19.730;2023-07-22T03:41:24;25.10;76.80
38263;DHT22;24054;50.128;19.730;2023-07-22T03:43:54;25.10;76.90
38263;DHT22;24054;50.128;19.730;2023-07-22T03:46:21;25.10;76.90
38263;DHT22;24054;50.128;19.730;2023-07-22T03:48:48;25.10;76.90
38263;DHT22;24054;50.128;19.730;2023-07-22T03:51:15;25.10;76.90
38263;DHT22;24054;50.128;19.730;2023-07-22T03:53:45;25.10;76.80
38263;DHT22;24054;50.128;19.730;2023-07-22T03:56:11;25.10;76.80
38263;DHT22;24054;50.128;19.730;2023-07-22T03:58:40;25.10;76.90
38263;DHT22;24054;50.128;19.730;2023-07-22T04:01:07;25.10;76.90
38263;DHT22;24054;50.128;19.730;2023-07-22T04:03:39;25.10;76.90
38263;DHT22;24054;50.128;19.730;2023-07-22T04:06:09;25.10;76.90
38263;DHT22;24054;50.128;19.730;2023-07-22T04:08:36;25.10;76.90
38263;DHT22;24054;50.128;19.730;2023-07-22T04:11:03;25.10;76.90
38263;DHT22;24054;50.128;19.730;2023-07-22T04:13:30;25.10;76.90
38263;DHT22;24054;50.128;19.730;2023-07-22T04:15:58;25.10;77.00
38263;DHT22;24054;50.128;19.730;2023-07-22T04:18:25;25.10;77.00
38263;DHT22;24054;50.128;19.730;2023-07-22T04:20:58;25.10;76.90
38263;DHT22;24054;50.128;19.730;2023-07-22T04:23:25;25.10;76.80
38263;DHT22;24054;50.128;19.730;2023-07-22T04:25:52;25.10;76.90
38263;DHT22;24054;50.128;19.730;2023-07-22T04:28:19;25.10;76.80
38263;DHT22;24054;50.128;19.730;2023-07-22T04:30:55;25.00;76.80
38263;DHT22;24054;50.128;19.730;2023-07-22T04:33:24;25.10;76.90
38263;DHT22;24054;50.128;19.730;2023-07-22T04:35:55;25.10;77.00
38263;DHT22;24054;50.128;19.730;2023-07-22T04:38:22;25.10;76.90
38263;DHT22;24054;50.128;19.730;2023-07-22T04:40:49;25.10;77.00
38263;DHT22;24054;50.128;19.730;2023-07-22T04:43:19;25.10;77.00
38263;DHT22;24054;50.128;19.730;2023-07-22T04:45:46;25.10;77.00
38263;DHT22;24054;50.128;19.730;2023-07-22T04:48:15;25.10;76.90
38263;DHT22;24054;50.128;19.730;2023-07-22T04:50:44;25.10;77.00
38263;DHT22;24054;50.128;19.730;2023-07-22T04:53:11;25.00;77.00
38263;DHT22;24054;50.128;19.730;2023-07-22T04:55:39;25.10;77.20
38263;DHT22;24054;50.128;19.730;2023-07-22T04:58:07;25.10;77.20
38263;DHT22;24054;50.128;19.730;2023-07-22T05:00:45;25.10;77.20
38263;DHT22;24054;50.128;19.730;2023-07-22T05:03:12;25.10;77.20
38263;DHT22;24054;50.128;19.730;2023-07-22T05:05:43;25.10;77.30
38263;DHT22;24054;50.128;19.730;2023-07-22T05:08:10;25.10;77.30
38263;DHT22;24054;50.128;19.730;2023-07-22T05:10:38;25.10;77.30
38263;DHT22;24054;50.128;19.730;2023-07-22T05:13:07;25.10;77.40
38263;DHT22;24054;50.128;19.730;2023-07-22T05:15:34;25.10;77.30
38263;DHT22;24054;50.128;19.730;2023-07-22T05:18:04;25.10;77.40
38263;DHT22;24054;50.128;19.730;2023-07-22T05:20:31;25.10;77.40
38263;DHT22;24054;50.128;19.730;2023-07-22T05:23:02;25.10;77.40
38263;DHT22;24054;50.128;19.730;2023-07-22T05:25:29;25.10;77.40
38263;DHT22;24054;50.128;19.730;2023-07-22T05:27:55;25.10;77.40
38263;DHT22;24054;50.128;19.730;2023-07-22T05:30:24;25.10;77.50
38263;DHT22;24054;50.128;19.730;2023-07-22T05:32:52;25.10;77.50
38263;DHT22;24054;50.128;19.730;2023-07-22T05:35:19;25.10;77.50
38263;DHT22;24054;50.128;19.730;2023-07-22T05:37:46;25.10;77.50
38263;DHT22;24054;50.128;19.730;2023-07-22T05:40:14;25.10;77.50
38263;DHT22;24054;50.128;19.730;2023-07-22T05:42:43;25.10;77.60
38263;DHT22;24054;50.128;19.730;2023-07-22T05:45:10;25.10;77.60
38263;DHT22;24054;50.128;19.730;2023-07-22T05:47:39;25.10;77.30
38263;DHT22;24054;50.128;19.730;2023-07-22T05:50:10;25.10;77.60
38263;DHT22;24054;50.128;19.730;2023-07-22T05:52:37;25.10;77.60
38263;DHT22;24054;50.128;19.730;2023-07-22T05:55:07;25.10;77.70
38263;DHT22;24054;50.128;19.730;2023-07-22T05:57:36;25.10;77.70
38263;DHT22;24054;50.128;19.730;2023-07-22T06:00:07;25.10;77.70
38263;DHT22;24054;50.128;19.730;2023-07-22T06:02:34;25.10;77.70
38263;DHT22;24054;50.128;19.730;2023-07-22T06:05:01;25.10;77.70
38263;DHT22;24054;50.128;19.730;2023-07-22T06:07:29;25.10;77.70
38263;DHT22;24054;50.128;19.730;2023-07-22T06:09:56;25.10;77.70
38263;DHT22;24054;50.128;19.730;2023-07-22T06:12:23;25.10;77.90
38263;DHT22;24054;50.128;19.730;2023-07-22T06:14:51;25.10;77.80
38263;DHT22;24054;50.128;19.730;2023-07-22T06:17:19;25.10;77.90
38263;DHT22;24054;50.128;19.730;2023-07-22T06:19:46;25.10;77.90
38263;DHT22;24054;50.128;19.730;2023-07-22T06:22:13;25.10;77.70
38263;DHT22;24054;50.128;19.730;2023-07-22T06:24:40;25.10;77.90
38263;DHT22;24054;50.128;19.730;2023-07-22T06:27:07;25.10;77.80
38263;DHT22;24054;50.128;19.730;2023-07-22T06:29:34;25.10;77.80
38263;DHT22;24054;50.128;19.730;2023-07-22T06:32:03;25.10;77.70
38263;DHT22;24054;50.128;19.730;2023-07-22T06:34:30;25.10;77.90
38263;DHT22;24054;50.128;19.730;2023-07-22T06:36:57;25.10;77.80
38263;DHT22;24054;50.128;19.730;2023-07-22T06:39:24;25.10;77.80
38263;DHT22;24054;50.128;19.730;2023-07-22T06:41:52;25.10;77.70
38263;DHT22;24054;50.128;19.730;2023-07-22T06:44:19;25.10;77.70
38263;DHT22;24054;50.128;19.730;2023-07-22T06:46:46;25.10;77.60
38263;DHT22;24054;50.128;19.730;2023-07-22T06:49:15;25.10;77.80
38263;DHT22;24054;50.128;19.730;2023-07-22T06:51:42;25.10;78.00
38263;DHT22;24054;50.128;19.730;2023-07-22T06:54:09;25.10;78.00
38263;DHT22;24054;50.128;19.730;2023-07-22T06:56:38;25.10;77.90
38263;DHT22;24054;50.128;19.730;2023-07-22T06:59:05;25.10;78.20
38263;DHT22;24054;50.128;19.730;2023-07-22T07:01:32;25.20;78.20
38263;DHT22;24054;50.128;19.730;2023-07-22T07:03:59;25.20;78.10
38263;DHT22;24054;50.128;19.730;2023-07-22T07:06:28;25.20;78.20
38263;DHT22;24054;50.128;19.730;2023-07-22T07:08:55;25.20;78.10
38263;DHT22;24054;50.128;19.730;2023-07-22T07:11:22;25.20;78.10
38263;DHT22;24054;50.128;19.730;2023-07-22T07:13:49;25.20;78.10
38263;DHT22;24054;50.128;19.730;2023-07-22T07:16:23;25.20;78.20
38263;DHT22;24054;50.128;19.730;2023-07-22T07:18:51;25.20;78.10
38263;DHT22;24054;50.128;19.730;2023-07-22T07:21:20;25.20;78.00
38263;DHT22;24054;50.128;19.730;2023-07-22T07:23:49;25.30;78.00
38263;DHT22;24054;50.128;19.730;2023-07-22T07:26:17;25.30;77.90
38263;DHT22;24054;50.128;19.730;2023-07-22T07:28:44;25.30;77.80
38263;DHT22;24054;50.128;19.730;2023-07-22T07:31:12;25.30;77.90
38263;DHT22;24054;50.128;19.730;2023-07-22T07:33:39;25.30;77.80
38263;DHT22;24054;50.128;19.730;2023-07-22T07:36:06;25.30;77.50
38263;DHT22;24054;50.128;19.730;2023-07-22T07:38:33;25.30;77.40
38263;DHT22;24054;50.128;19.730;2023-07-22T07:41:05;25.30;77.20
38263;DHT22;24054;50.128;19.730;2023-07-22T07:43:34;25.30;76.70
38263;DHT22;24054;50.128;19.730;2023-07-22T07:46:17;25.40;76.30
38263;DHT22;24054;50.128;19.730;2023-07-22T07:48:46;25.30;75.80
38263;DHT22;24054;50.128;19.730;2023-07-22T07:51:14;25.30;75.50
38263;DHT22;24054;50.128;19.730;2023-07-22T07:53:44;25.30;75.00
38263;DHT22;24054;50.128;19.730;2023-07-22T07:56:14;25.30;74.60
38263;DHT22;24054;50.128;19.730;2023-07-22T07:58:41;25.30;74.20
38263;DHT22;24054;50.128;19.730;2023-07-22T08:01:09;25.30;73.20
38263;DHT22;24054;50.128;19.730;2023-07-22T08:03:37;25.30;72.70
38263;DHT22;24054;50.128;19.730;2023-07-22T08:06:05;25.30;72.20
38263;DHT22;24054;50.128;19.730;2023-07-22T08:08:33;25.30;72.20
38263;DHT22;24054;50.128;19.730;2023-07-22T08:11:01;25.30;72.00
38263;DHT22;24054;50.128;19.730;2023-07-22T08:13:32;25.30;71.70
38263;DHT22;24054;50.128;19.730;2023-07-22T08:16:00;25.30;71.50
38263;DHT22;24054;50.128;19.730;2023-07-22T08:18:28;25.30;71.40
38263;DHT22;24054;50.128;19.730;2023-07-22T08:20:56;25.30;71.20
38263;DHT22;24054;50.128;19.730;2023-07-22T08:23:23;25.30;71.00
38263;DHT22;24054;50.128;19.730;2023-07-22T08:25:50;25.30;70.70
38263;DHT22;24054;50.128;19.730;2023-07-22T08:28:19;25.30;70.70
38263;DHT22;24054;50.128;19.730;2023-07-22T08:30:47;25.30;70.70
38263;DHT22;24054;50.128;19.730;2023-07-22T08:33:15;25.30;70.70
38263;DHT22;24054;50.128;19.730;2023-07-22T08:35:42;25.30;70.70
38263;DHT22;24054;50.128;19.730;2023-07-22T08:40:41;25.60;89.30
38263;DHT22;24054;50.128;19.730;2023-07-22T08:43:11;25.30;69.20
38263;DHT22;24054;50.128;19.730;2023-07-22T08:45:41;25.30;67.40
38263;DHT22;24054;50.128;19.730;2023-07-22T08:48:09;25.30;67.00
38263;DHT22;24054;50.128;19.730;2023-07-22T08:50:43;25.30;67.10
38263;DHT22;24054;50.128;19.730;2023-07-22T08:53:12;25.30;66.20
38263;DHT22;24054;50.128;19.730;2023-07-22T08:55:41;25.20;65.20
38263;DHT22;24054;50.128;19.730;2023-07-22T08:58:08;25.20;64.70
38263;DHT22;24054;50.128;19.730;2023-07-22T09:00:36;25.20;65.00
38263;DHT22;24054;50.128;19.730;2023-07-22T09:03:05;25.20;64.50
38263;DHT22;24054;50.128;19.730;2023-07-22T09:05:34;25.20;63.80
38263;DHT22;24054;50.128;19.730;2023-07-22T09:08:03;25.20;63.70
38263;DHT22;24054;50.128;19.730;2023-07-22T09:10:31;25.20;64.10
38263;DHT22;24054;50.128;19.730;2023-07-22T09:13:00;25.20;63.70
38263;DHT22;24054;50.128;19.730;2023-07-22T09:15:28;25.20;63.00
38263;DHT22;24054;50.128;19.730;2023-07-22T09:17:55;25.20;62.30
38263;DHT22;24054;50.128;19.730;2023-07-22T09:20:27;25.20;62.30
38263;DHT22;24054;50.128;19.730;2023-07-22T09:22:54;25.20;62.00
38263;DHT22;24054;50.128;19.730;2023-07-22T09:25:23;25.20;61.80
38263;DHT22;24054;50.128;19.730;2023-07-22T09:27:51;25.20;61.80
38263;DHT22;24054;50.128;19.730;2023-07-22T09:30:25;25.20;62.00
38263;DHT22;24054;50.128;19.730;2023-07-22T09:32:53;25.20;61.60
38263;DHT22;24054;50.128;19.730;2023-07-22T09:35:21;25.20;62.10
38263;DHT22;24054;50.128;19.730;2023-07-22T09:37:48;25.20;62.40
38263;DHT22;24054;50.128;19.730;2023-07-22T09:40:17;25.20;61.70
38263;DHT22;24054;50.128;19.730;2023-07-22T09:42:48;25.20;61.90
38263;DHT22;24054;50.128;19.730;2023-07-22T09:45:15;25.20;61.60
38263;DHT22;24054;50.128;19.730;2023-07-22T09:47:45;25.20;60.70
38263;DHT22;24054;50.128;19.730;2023-07-22T09:50:17;25.20;60.70
38263;DHT22;24054;50.128;19.730;2023-07-22T09:52:46;25.40;60.50
38263;DHT22;24054;50.128;19.730;2023-07-22T09:55:21;25.20;60.40
38263;DHT22;24054;50.128;19.730;2023-07-22T09:57:51;25.20;60.90
38263;DHT22;24054;50.128;19.730;2023-07-22T10:00:19;25.30;60.40
38263;DHT22;24054;50.128;19.730;2023-07-22T10:02:51;25.20;60.00
38263;DHT22;24054;50.128;19.730;2023-07-22T10:05:19;24.80;67.90
38263;DHT22;24054;50.128;19.730;2023-07-22T10:07:48;25.20;59.50
38263;DHT22;24054;50.128;19.730;2023-07-22T10:10:17;24.90;72.40
38263;DHT22;24054;50.128;19.730;2023-07-22T10:12:45;25.30;60.40
38263;DHT22;24054;50.128;19.730;2023-07-22T10:15:14;25.20;59.60
38263;DHT22;24054;50.128;19.730;2023-07-22T10:17:44;25.20;59.60
38263;DHT22;24054;50.128;19.730;2023-07-22T10:20:13;25.10;67.40
38263;DHT22;24054;50.128;19.730;2023-07-22T10:22:44;25.20;58.40
38263;DHT22;24054;50.128;19.730;2023-07-22T10:25:15;25.00;82.80
38263;DHT22;24054;50.128;19.730;2023-07-22T10:27:44;25.70;63.60
38263;DHT22;24054;50.128;19.730;2023-07-22T10:30:13;25.30;63.50
38263;DHT22;24054;50.128;19.730;2023-07-22T10:32:41;25.30;58.60
38263;DHT22;24054;50.128;19.730;2023-07-22T10:35:12;25.30;59.10
38263;DHT22;24054;50.128;19.730;2023-07-22T10:37:40;25.30;58.30
38263;DHT22;24054;50.128;19.730;2023-07-22T10:40:25;25.30;57.70
38263;DHT22;24054;50.128;19.730;2023-07-22T10:42:58;25.30;57.50
38263;DHT22;24054;50.128;19.730;2023-07-22T10:45:32;25.40;57.00
38263;DHT22;24054;50.128;19.730;2023-07-22T10:48:06;25.40;56.70
38263;DHT22;24054;50.128;19.730;2023-07-22T10:50:41;25.40;56.80
38263;DHT22;24054;50.128;19.730;2023-07-22T10:53:19;25.40;56.70
38263;DHT22;24054;50.128;19.730;2023-07-22T10:56:07;25.40;56.80
38263;DHT22;24054;50.128;19.730;2023-07-22T10:58:55;25.40;57.10
38263;DHT22;24054;50.128;19.730;2023-07-22T11:01:24;25.40;57.10
38263;DHT22;24054;50.128;19.730;2023-07-22T11:04:12;25.50;57.30
38263;DHT22;24054;50.128;19.730;2023-07-22T11:06:51;25.50;57.40
38263;DHT22;24054;50.128;19.730;2023-07-22T11:09:39;25.50;57.30
38263;DHT22;24054;50.128;19.730;2023-07-22T11:12:11;25.60;57.50
38263;DHT22;24054;50.128;19.730;2023-07-22T11:14:47;25.60;57.60
38263;DHT22;24054;50.128;19.730;2023-07-22T11:17:18;25.60;57.50
38263;DHT22;24054;50.128;19.730;2023-07-22T11:19:45;25.60;57.40
38263;DHT22;24054;50.128;19.730;2023-07-22T11:22:15;25.60;57.70
38263;DHT22;24054;50.128;19.730;2023-07-22T11:24:44;25.70;57.50
38263;DHT22;24054;50.128;19.730;2023-07-22T11:27:12;25.70;57.70
38263;DHT22;24054;50.128;19.730;2023-07-22T11:29:40;25.80;57.10
38263;DHT22;24054;50.128;19.730;2023-07-22T11:32:15;25.80;56.70
38263;DHT22;24054;50.128;19.730;2023-07-22T11:34:44;26.60;71.10
38263;DHT22;24054;50.128;19.730;2023-07-22T11:37:11;26.30;73.00
38263;DHT22;24054;50.128;19.730;2023-07-22T11:42:11;25.80;66.30
38263;DHT22;24054;50.128;19.730;2023-07-22T11:49:41;25.90;58.30
38263;DHT22;24054;50.128;19.730;2023-07-22T11:52:10;25.90;54.80
38263;DHT22;24054;50.128;19.730;2023-07-22T11:54:41;25.90;83.70
38263;DHT22;24054;50.128;19.730;2023-07-22T11:57:15;25.70;66.60
38263;DHT22;24054;50.128;19.730;2023-07-22T11:59:47;25.80;54.30
38263;DHT22;24054;50.128;19.730;2023-07-22T12:02:18;25.80;54.50
38263;DHT22;24054;50.128;19.730;2023-07-22T12:04:51;25.80;54.50
38263;DHT22;24054;50.128;19.730;2023-07-22T12:07:23;25.90;54.60
38263;DHT22;24054;50.128;19.730;2023-07-22T12:10:00;25.80;55.00
38263;DHT22;24054;50.128;19.730;2023-07-22T12:15:04;25.90;59.10
38263;DHT22;24054;50.128;19.730;2023-07-22T12:17:50;25.80;54.90
38263;DHT22;24054;50.128;19.730;2023-07-22T12:20:19;26.20;59.00
38263;DHT22;24054;50.128;19.730;2023-07-22T12:25:14;25.80;53.60
38263;DHT22;24054;50.128;19.730;2023-07-22T12:27:43;25.80;53.40
38263;DHT22;24054;50.128;19.730;2023-07-22T12:30:10;25.20;84.40
38263;DHT22;24054;50.128;19.730;2023-07-22T12:40:07;25.70;86.70
38263;DHT22;24054;50.128;19.730;2023-07-22T12:45:08;25.80;60.60
38263;DHT22;24054;50.128;19.730;2023-07-22T13:02:21;25.80;65.10
38263;DHT22;24054;50.128;19.730;2023-07-22T13:19:35;25.90;60.70
38263;DHT22;24054;50.128;19.730;2023-07-22T13:36:49;25.70;62.10
38263;DHT22;24054;50.128;19.730;2023-07-22T13:41:45;25.70;61.60
38263;DHT22;24054;50.128;19.730;2023-07-22T13:54:09;25.50;60.20
38263;DHT22;24054;50.128;19.730;2023-07-22T14:21:19;25.50;63.20
38263;DHT22;24054;50.128;19.730;2023-07-22T14:28:42;25.60;62.00
38263;DHT22;24054;50.128;19.730;2023-07-22T14:31:15;25.40;60.00
38263;DHT22;24054;50.128;19.730;2023-07-22T14:46:03;25.40;51.90
38263;DHT22;24054;50.128;19.730;2023-07-22T14:48:30;25.00;83.70
38263;DHT22;24054;50.128;19.730;2023-07-22T14:55:52;25.90;85.80
38263;DHT22;24054;50.128;19.730;2023-07-22T15:03:17;25.30;51.50
38263;DHT22;24054;50.128;19.730;2023-07-22T15:05:44;25.50;73.10
38263;DHT22;24054;50.128;19.730;2023-07-22T15:10:40;25.20;51.50
38263;DHT22;24054;50.128;19.730;2023-07-22T15:20:34;25.20;51.50
38263;DHT22;24054;50.128;19.730;2023-07-22T15:37:52;25.10;52.20
38263;DHT22;24054;50.128;19.730;2023-07-22T15:45:16;25.20;52.50
38263;DHT22;24054;50.128;19.730;2023-07-22T15:55:08;24.80;53.20
38263;DHT22;24054;50.128;19.730;2023-07-22T15:57:35;25.20;53.50
38263;DHT22;24054;50.128;19.730;2023-07-22T16:00:02;24.50;55.10
38263;DHT22;24054;50.128;19.730;2023-07-22T16:04:36;25.30;73.60
38263;DHT22;24054;50.128;19.730;2023-07-22T16:58:56;24.90;51.20
38263;DHT22;24054;50.128;19.730;2023-07-22T17:01:23;25.00;51.50
38263;DHT22;24054;50.128;19.730;2023-07-22T17:16:12;24.70;77.40
38263;DHT22;24054;50.128;19.730;2023-07-22T17:26:03;24.70;73.20
38263;DHT22;24054;50.128;19.730;2023-07-22T18:22:56;24.50;87.10
38263;DHT22;24054;50.128;19.730;2023-07-22T18:40:10;24.60;90.60
38263;DHT22;24054;50.128;19.730;2023-07-22T18:54:59;24.50;59.90
38263;DHT22;24054;50.128;19.730;2023-07-22T18:57:26;24.70;59.90
38263;DHT22;24054;50.128;19.730;2023-07-22T18:59:53;25.30;64.60
38263;DHT22;24054;50.128;19.730;2023-07-22T19:02:20;24.70;61.20
38263;DHT22;24054;50.128;19.730;2023-07-22T19:04:47;24.70;61.60
38263;DHT22;24054;50.128;19.730;2023-07-22T19:07:14;24.70;60.90
38263;DHT22;24054;50.128;19.730;2023-07-22T19:09:41;24.70;61.70
38263;DHT22;24054;50.128;19.730;2023-07-22T19:12:10;24.70;62.20
38263;DHT22;24054;50.128;19.730;2023-07-22T19:14:37;24.80;62.20
38263;DHT22;24054;50.128;19.730;2023-07-22T19:17:05;24.70;62.20
38263;DHT22;24054;50.128;19.730;2023-07-22T19:19:32;24.80;62.20
38263;DHT22;24054;50.128;19.730;2023-07-22T19:21:59;24.80;62.10
38263;DHT22;24054;50.128;19.730;2023-07-22T19:24:26;24.80;62.20
38263;DHT22;24054;50.128;19.730;2023-07-22T19:26:53;24.80;62.00
38263;DHT22;24054;50.128;19.730;2023-07-22T19:29:22;24.80;62.20
38263;DHT22;24054;50.128;19.730;2023-07-22T19:31:51;24.80;62.30
38263;DHT22;24054;50.128;19.730;2023-07-22T19:34:18;24.80;62.40
38263;DHT22;24054;50.128;19.730;2023-07-22T19:36:45;24.80;62.50
38263;DHT22;24054;50.128;19.730;2023-07-22T19:39:12;24.80;62.50
38263;DHT22;24054;50.128;19.730;2023-07-22T19:41:39;24.90;62.70
38263;DHT22;24054;50.128;19.730;2023-07-22T19:44:06;24.80;62.70
38263;DHT22;24054;50.128;19.730;2023-07-22T19:46:34;24.80;62.50
38263;DHT22;24054;50.128;19.730;2023-07-22T19:49:01;24.90;62.60
38263;DHT22;24054;50.128;19.730;2023-07-22T19:51:28;24.90;62.60
38263;DHT22;24054;50.128;19.730;2023-07-22T19:53:55;24.90;62.50
38263;DHT22;24054;50.128;19.730;2023-07-22T19:56:22;24.90;62.50
38263;DHT22;24054;50.128;19.730;2023-07-22T19:58:49;24.90;62.50
38263;DHT22;24054;50.128;19.730;2023-07-22T20:01:16;24.90;62.40
38263;DHT22;24054;50.128;19.730;2023-07-22T20:03:49;24.90;62.40
38263;DHT22;24054;50.128;19.730;2023-07-22T20:06:16;24.90;62.30
38263;DHT22;24054;50.128;19.730;2023-07-22T20:08:43;24.80;62.40
38263;DHT22;24054;50.128;19.730;2023-07-22T20:11:15;24.90;63.30
38263;DHT22;24054;50.128;19.730;2023-07-22T20:13:44;24.90;63.60
38263;DHT22;24054;50.128;19.730;2023-07-22T20:16:11;24.90;64.40
38263;DHT22;24054;50.128;19.730;2023-07-22T20:18:38;24.90;65.30
38263;DHT22;24054;50.128;19.730;2023-07-22T20:21:09;24.90;65.50
38263;DHT22;24054;50.128;19.730;2023-07-22T20:23:36;24.90;66.00
38263;DHT22;24054;50.128;19.730;2023-07-22T20:26:06;25.00;66.10
38263;DHT22;24054;50.128;19.730;2023-07-22T20:28:33;24.90;66.50
38263;DHT22;24054;50.128;19.730;2023-07-22T20:31:00;25.00;66.80
38263;DHT22;24054;50.128;19.730;2023-07-22T20:33:27;24.90;66.90
38263;DHT22;24054;50.128;19.730;2023-07-22T20:36:01;24.90;67.20
38263;DHT22;24054;50.128;19.730;2023-07-22T20:38:33;25.00;67.40
38263;DHT22;24054;50.128;19.730;2023-07-22T20:41:02;25.00;67.70
38263;DHT22;24054;50.128;19.730;2023-07-22T20:43:30;25.00;68.00
38263;DHT22;24054;50.128;19.730;2023-07-22T20:46:01;25.10;68.00
38263;DHT22;24054;50.128;19.730;2023-07-22T20:48:30;25.10;68.40
38263;DHT22;24054;50.128;19.730;2023-07-22T20:50:57;25.10;68.20